Sebewaing, Michigan
Current Conditions -  °F | °C
As of 12:05 AM on Saturday 29 Nov 2014 (Local Time) from KCFS Reporting Station
Overcast Overcast  
Wind Chill: -8°   Ceiling: 3700
Heat Index: -4°   Visibility: 7mi
Dew Point: -5°   Wind: 7mph
Humidity: 93%   Direction: 140°SE
Pressure: 30.05"   Gusts: NA
Location:  43.73°N, 83.45°W
Report Text: KCFS 290505Z AUTO 14006KT 7SM OVC037 M04/M05 A3005 RMK AO2
Loading
Personal Weather Stations






























Interactive Weather Map New forecast layout! Learn more

10-Day Weather Forecast

Advertisements
Track Severe Weather on mobile